Time;durP1;ratioP1;P1;durP2;ratioP2;P2;SDS_P1;SDS_P2;PMS_P1;PMS_P2;Temp;Humidity;BMP_temperature;BMP_pressure;BME280_temperature;BME280_humidity;BME280_pressure;Samples;Min_cycle;Max_cycle;Signal;HPM_P1;HPM_P2
2024/02/20 00:01:51;;;;;;;34.30;8.15;;;7.90;99.90;;;;;;4914513;28;20039;-82
2024/02/20 00:04:19;;;;;;;29.23;6.68;;;7.80;99.90;;;;;;4912165;28;20041;-82
2024/02/20 00:06:44;;;;;;;33.83;9.60;;;7.80;99.90;;;;;;4928364;28;20043;-82
2024/02/20 00:09:10;;;;;;;29.80;8.30;;;7.80;99.90;;;;;;4927392;28;20042;-82
2024/02/20 00:11:35;;;;;;;32.83;7.70;;;7.70;99.90;;;;;;4929762;28;20121;-82
2024/02/20 00:14:01;;;;;;;26.70;10.60;;;7.70;99.90;;;;;;4912367;28;20111;-82
2024/02/20 00:16:26;;;;;;;30.40;7.30;;;7.70;99.90;;;;;;4930787;28;20118;-82
2024/02/20 00:18:52;;;;;;;30.23;7.55;;;7.70;99.90;;;;;;4911440;28;20063;-83
2024/02/20 00:21:18;;;;;;;23.60;6.50;;;7.70;99.90;;;;;;4929673;28;20490;-81
2024/02/20 00:23:44;;;;;;;30.77;8.93;;;7.80;99.90;;;;;;4912400;28;20042;-82
2024/02/20 00:26:13;;;;;;;40.63;10.32;;;7.80;99.90;;;;;;4913321;28;20126;-80
2024/02/20 00:28:41;;;;;;;41.00;7.70;;;7.70;99.90;;;;;;4943438;28;20031;-84
2024/02/20 00:31:07;;;;;;;37.03;9.50;;;7.70;99.90;;;;;;4929184;28;20509;-84
2024/02/20 00:33:34;;;;;;;28.75;7.38;;;7.80;99.90;;;;;;4942056;28;20041;-82
2024/02/20 00:36:03;;;;;;;29.20;7.10;;;7.80;99.90;;;;;;4914293;28;20051;-82
2024/02/20 00:38:29;;;;;;;31.30;8.63;;;7.80;99.90;;;;;;4930445;28;20561;-82
2024/02/20 00:40:55;;;;;;;27.42;7.38;;;7.80;99.90;;;;;;4926199;28;20027;-84
2024/02/20 00:43:21;;;;;;;34.83;8.45;;;7.80;99.90;;;;;;4926903;28;20602;-84
2024/02/20 00:45:46;;;;;;;36.38;8.65;;;7.70;99.90;;;;;;4912521;28;20569;-84
2024/02/20 00:48:12;;;;;;;34.97;8.73;;;7.70;99.90;;;;;;4913795;28;20123;-82
2024/02/20 00:50:38;;;;;;;39.03;8.25;;;7.70;99.90;;;;;;4926759;28;20038;-82
2024/02/20 00:53:04;;;;;;;29.55;7.30;;;7.60;99.90;;;;;;4912340;29;20024;-83
2024/02/20 00:55:29;;;;;;;31.13;8.93;;;7.70;99.90;;;;;;4911557;28;20171;-84
2024/02/20 00:57:58;;;;;;;38.00;8.00;;;7.70;99.90;;;;;;4924035;28;20035;-84
2024/02/20 01:00:24;;;;;;;39.28;7.65;;;7.70;99.90;;;;;;4928194;28;20094;-83
2024/02/20 01:02:50;;;;;;;32.53;7.97;;;7.70;99.90;;;;;;4924159;28;20035;-83
2024/02/20 01:05:16;;;;;;;44.47;9.25;;;7.70;99.90;;;;;;4928030;28;20031;-83
2024/02/20 01:07:41;;;;;;;25.25;6.47;;;7.70;99.90;;;;;;4930380;28;20031;-83
2024/02/20 01:10:08;;;;;;;27.10;7.80;;;7.70;99.90;;;;;;4928356;28;20404;-83
2024/02/20 01:12:34;;;;;;;35.28;7.18;;;7.70;99.90;;;;;;4916188;28;20036;-84
2024/02/20 01:14:59;;;;;;;35.25;8.48;;;7.70;99.90;;;;;;4926690;28;20045;-84
2024/02/20 01:17:25;;;;;;;25.85;6.78;;;7.70;99.90;;;;;;4915140;28;20154;-83
2024/02/20 01:19:50;;;;;;;31.17;7.28;;;7.60;99.90;;;;;;4930244;28;20429;-83
2024/02/20 01:22:16;;;;;;;35.78;9.45;;;7.50;99.90;;;;;;4945089;28;20031;-83
2024/02/20 01:24:41;;;;;;;34.72;6.78;;;7.60;99.90;;;;;;4910840;28;20035;-84
2024/02/20 01:27:07;;;;;;;31.85;8.43;;;7.50;99.90;;;;;;4937987;28;20051;-83
2024/02/20 01:29:32;;;;;;;33.65;8.30;;;7.50;99.90;;;;;;4943948;28;20032;-83
2024/02/20 01:31:58;;;;;;;39.85;7.93;;;7.60;99.90;;;;;;4927686;28;20042;-83
2024/02/20 01:34:24;;;;;;;45.20;9.57;;;7.60;99.90;;;;;;4925756;28;20071;-82
2024/02/20 01:36:52;;;;;;;37.65;7.97;;;7.60;99.90;;;;;;4925432;28;20037;-83
2024/02/20 01:39:25;;;;;;;33.67;7.53;;;7.50;99.90;;;;;;4926592;28;20155;-83
2024/02/20 01:41:52;;;;;;;45.20;8.45;;;7.60;99.90;;;;;;4942178;28;20525;-82
2024/02/20 01:44:17;;;;;;;45.85;8.75;;;7.50;99.90;;;;;;4914041;28;20039;-83
2024/02/20 01:46:43;;;;;;;18.63;5.57;;;7.50;99.90;;;;;;4924490;28;20549;-83
2024/02/20 01:49:11;;;;;;;28.90;7.13;;;7.60;99.90;;;;;;4914715;29;20042;-82
2024/02/20 01:51:36;;;;;;;37.47;10.35;;;7.60;99.90;;;;;;4927296;28;20067;-83
2024/02/20 01:54:03;;;;;;;56.88;13.25;;;7.60;99.90;;;;;;4941465;28;20067;-83
2024/02/20 01:56:29;;;;;;;52.13;12.90;;;7.50;99.90;;;;;;4943683;28;20031;-83
2024/02/20 01:58:56;;;;;;;37.30;8.70;;;7.60;99.90;;;;;;4941082;28;20114;-83
2024/02/20 02:01:25;;;;;;;52.95;13.20;;;7.60;99.90;;;;;;4927833;28;20043;-83
2024/02/20 02:03:53;;;;;;;23.75;8.82;;;7.60;99.90;;;;;;4916153;28;20511;-84
2024/02/20 02:06:27;;;;;;;51.90;14.13;;;7.60;99.90;;;;;;4911978;28;20520;-83
2024/02/20 02:08:53;;;;;;;39.92;12.70;;;7.60;99.90;;;;;;4941598;28;20047;-84
2024/02/20 02:11:18;;;;;;;42.45;11.23;;;7.60;99.90;;;;;;4925575;28;20565;-83
2024/02/20 02:13:44;;;;;;;34.97;13.38;;;7.70;99.90;;;;;;4925202;28;20043;-83
2024/02/20 02:16:09;;;;;;;36.35;11.15;;;7.70;99.90;;;;;;4915240;28;20058;-83
2024/02/20 02:18:35;;;;;;;55.38;18.05;;;7.70;99.90;;;;;;4928329;28;20094;-84
2024/02/20 02:21:00;;;;;;;53.53;18.40;;;7.70;99.90;;;;;;4939417;28;20046;-84
2024/02/20 02:23:26;;;;;;;43.50;15.63;;;7.60;99.90;;;;;;4926638;28;20055;-83
2024/02/20 02:25:52;;;;;;;37.45;11.38;;;7.60;99.90;;;;;;4928957;28;20062;-83
2024/02/20 02:28:17;;;;;;;40.13;12.63;;;7.60;99.90;;;;;;4926651;28;20042;-82
2024/02/20 02:30:45;;;;;;;30.40;11.75;;;7.70;99.90;;;;;;4911152;28;20078;-84
2024/02/20 02:33:10;;;;;;;25.65;9.52;;;7.60;99.90;;;;;;4929418;28;20484;-84
2024/02/20 02:35:36;;;;;;;54.47;12.95;;;7.60;99.90;;;;;;4912899;28;20039;-83
2024/02/20 02:38:02;;;;;;;34.08;11.18;;;7.50;99.90;;;;;;4925610;28;20050;-84
2024/02/20 02:40:27;;;;;;;50.03;11.75;;;7.50;99.90;;;;;;4943912;28;20434;-83
2024/02/20 02:42:53;;;;;;;34.70;9.52;;;7.60;99.90;;;;;;4956878;28;20114;-83
2024/02/20 02:45:18;;;;;;;45.28;12.32;;;7.50;99.90;;;;;;4941817;28;20062;-84
2024/02/20 02:47:44;;;;;;;32.60;9.45;;;7.50;99.90;;;;;;4924287;28;20055;-83
2024/02/20 02:50:09;;;;;;;24.85;8.40;;;7.50;99.90;;;;;;4921316;28;20632;-83
2024/02/20 02:52:35;;;;;;;43.83;10.98;;;7.50;99.90;;;;;;4915807;28;20043;-83
2024/02/20 02:55:01;;;;;;;28.60;8.57;;;7.50;99.90;;;;;;4942385;28;20182;-84
2024/02/20 02:57:27;;;;;;;22.73;8.85;;;7.50;99.90;;;;;;4910780;28;20035;-83
2024/02/20 02:59:52;;;;;;;27.50;8.98;;;7.50;99.90;;;;;;4907458;28;20042;-83
2024/02/20 03:02:19;;;;;;;28.85;8.98;;;7.50;99.90;;;;;;4909857;28;20028;-83
2024/02/20 03:04:44;;;;;;;35.97;9.82;;;7.50;99.90;;;;;;4924742;28;20027;-83
2024/02/20 03:07:10;;;;;;;34.03;9.73;;;7.50;99.90;;;;;;4922747;28;20073;-83
2024/02/20 03:09:37;;;;;;;39.97;11.10;;;7.50;99.90;;;;;;4938107;28;20035;-83
2024/02/20 03:12:02;;;;;;;25.95;8.23;;;7.40;99.90;;;;;;4927142;28;20042;-83
2024/02/20 03:14:28;;;;;;;22.20;7.72;;;7.40;99.90;;;;;;4913423;28;20493;-83
2024/02/20 03:16:54;;;;;;;48.38;10.57;;;7.40;99.90;;;;;;4928909;28;20031;-83
2024/02/20 03:19:20;;;;;;;32.92;6.82;;;7.30;99.90;;;;;;4924515;28;20054;-83
2024/02/20 03:21:46;;;;;;;24.67;7.18;;;7.30;99.90;;;;;;4925995;28;20032;-83
2024/02/20 03:24:12;;;;;;;22.98;7.85;;;7.30;99.90;;;;;;4927572;28;20031;-82
2024/02/20 03:26:39;;;;;;;28.65;8.77;;;7.30;99.90;;;;;;4921834;28;20039;-83
2024/02/20 03:29:07;;;;;;;34.42;7.80;;;7.30;99.90;;;;;;4926696;28;20524;-83
2024/02/20 03:31:33;;;;;;;28.45;7.40;;;7.20;99.90;;;;;;4928635;28;20443;-82
2024/02/20 03:33:59;;;;;;;24.55;5.88;;;7.20;99.90;;;;;;4925360;28;20039;-82
2024/02/20 03:36:24;;;;;;;22.92;6.00;;;7.20;99.90;;;;;;4925208;28;20027;-81
2024/02/20 03:38:50;;;;;;;27.40;7.28;;;7.10;99.90;;;;;;4938487;28;20980;-83
2024/02/20 03:41:16;;;;;;;41.00;8.23;;;7.10;99.90;;;;;;4943007;28;20030;-82
2024/02/20 03:43:42;;;;;;;20.08;6.80;;;7.00;99.90;;;;;;4939981;28;20486;-83
2024/02/20 03:46:09;;;;;;;24.88;7.18;;;7.00;99.90;;;;;;4924542;28;20086;-83
2024/02/20 03:48:35;;;;;;;23.98;6.63;;;7.00;99.90;;;;;;4922252;28;20413;-82
2024/02/20 03:51:01;;;;;;;23.23;5.70;;;6.90;99.90;;;;;;4941474;28;20036;-83
2024/02/20 03:53:27;;;;;;;24.58;5.75;;;7.00;99.90;;;;;;4927189;28;20036;-82
2024/02/20 03:55:52;;;;;;;14.57;4.57;;;6.90;99.90;;;;;;4941149;28;20027;-83
2024/02/20 03:58:18;;;;;;;23.65;5.13;;;6.90;99.90;;;;;;4923293;28;20023;-83
2024/02/20 04:00:44;;;;;;;40.08;7.32;;;6.90;99.90;;;;;;4909609;28;20501;-83
2024/02/20 04:03:09;;;;;;;21.50;5.85;;;6.90;99.90;;;;;;4929199;28;20496;-83
2024/02/20 04:05:35;;;;;;;15.57;4.00;;;6.80;99.90;;;;;;4938411;28;20546;-83
2024/02/20 04:08:01;;;;;;;17.92;4.57;;;6.80;99.90;;;;;;4926755;28;20114;-83
2024/02/20 04:10:26;;;;;;;19.23;5.47;;;6.80;99.90;;;;;;4923878;28;20522;-82
2024/02/20 04:12:52;;;;;;;25.67;6.43;;;6.90;99.90;;;;;;4941020;28;20043;-83
2024/02/20 04:15:17;;;;;;;25.83;6.43;;;6.80;99.90;;;;;;4925326;28;20028;-82
2024/02/20 04:17:43;;;;;;;19.67;4.95;;;6.80;99.90;;;;;;4922406;28;20035;-81
2024/02/20 04:20:10;;;;;;;23.70;4.35;;;6.70;99.90;;;;;;4909334;28;20024;-81
2024/02/20 04:22:38;;;;;;;20.70;4.53;;;6.80;99.90;;;;;;4926816;28;20118;-83
2024/02/20 04:25:05;;;;;;;17.23;3.83;;;6.80;99.90;;;;;;4938609;28;20489;-83
2024/02/20 04:27:30;;;;;;;21.55;5.45;;;6.70;99.90;;;;;;4922564;28;20513;-82
2024/02/20 04:29:56;;;;;;;13.95;4.45;;;6.70;99.90;;;;;;4923229;28;20063;-83
2024/02/20 04:32:22;;;;;;;17.92;4.90;;;6.80;99.90;;;;;;4922525;28;20089;-82
2024/02/20 04:34:47;;;;;;;34.78;5.80;;;6.80;99.90;;;;;;4912025;28;20039;-83
2024/02/20 04:37:15;;;;;;;21.17;5.60;;;6.70;99.90;;;;;;4911826;28;20087;-83
2024/02/20 04:39:43;;;;;;;25.90;5.80;;;6.70;99.90;;;;;;4929957;28;20067;-83
2024/02/20 04:42:09;;;;;;;19.45;5.63;;;6.60;99.90;;;;;;4913173;28;20106;-82
2024/02/20 04:44:34;;;;;;;19.20;5.07;;;6.60;99.90;;;;;;4925955;28;20142;-83
2024/02/20 04:47:00;;;;;;;26.38;7.35;;;6.60;99.90;;;;;;4928932;28;20516;-83
2024/02/20 04:49:25;;;;;;;17.05;5.72;;;6.70;99.90;;;;;;4915859;28;20035;-83
2024/02/20 04:51:51;;;;;;;19.05;4.78;;;6.70;99.90;;;;;;4929928;28;20045;-81
2024/02/20 04:54:16;;;;;;;17.23;5.18;;;6.70;99.90;;;;;;4928050;28;20039;-83
2024/02/20 04:56:42;;;;;;;29.08;5.05;;;6.70;99.90;;;;;;4945483;28;20122;-83
2024/02/20 04:59:07;;;;;;;21.67;4.97;;;6.50;99.90;;;;;;4927567;28;20124;-83
2024/02/20 05:01:33;;;;;;;19.83;5.57;;;6.50;99.90;;;;;;4929028;28;20075;-83
2024/02/20 05:03:59;;;;;;;18.08;4.80;;;6.50;99.90;;;;;;4926839;28;20460;-83
2024/02/20 05:06:24;;;;;;;13.20;4.63;;;6.40;99.90;;;;;;4915014;28;20047;-78
2024/02/20 05:08:50;;;;;;;19.02;5.38;;;6.40;99.90;;;;;;4905663;28;20035;-78
2024/02/20 05:11:15;;;;;;;23.30;5.95;;;6.50;99.90;;;;;;4910756;28;20326;-78
2024/02/20 05:13:41;;;;;;;22.27;5.45;;;6.40;99.90;;;;;;4925638;28;20024;-77
2024/02/20 05:16:07;;;;;;;15.70;5.28;;;6.50;99.90;;;;;;4943429;28;20043;-78
2024/02/20 05:18:32;;;;;;;18.60;5.40;;;6.40;99.90;;;;;;4913920;28;20043;-77
2024/02/20 05:20:58;;;;;;;19.88;5.28;;;6.40;99.90;;;;;;4913084;28;20059;-76
2024/02/20 05:23:23;;;;;;;20.05;4.85;;;6.40;99.90;;;;;;4909654;28;20041;-77
2024/02/20 05:25:49;;;;;;;15.25;4.88;;;6.40;99.90;;;;;;4922436;28;20123;-78
2024/02/20 05:28:14;;;;;;;20.05;5.47;;;6.40;99.90;;;;;;4923316;28;20066;-78
2024/02/20 05:30:40;;;;;;;20.90;5.70;;;6.40;99.90;;;;;;4909335;28;20093;-77
2024/02/20 05:33:05;;;;;;;32.10;6.88;;;6.40;99.90;;;;;;4926464;28;21533;-76
2024/02/20 05:35:31;;;;;;;15.05;3.70;;;6.40;99.90;;;;;;4941668;28;20039;-76
2024/02/20 05:38:00;;;;;;;15.55;4.75;;;6.40;99.90;;;;;;4914368;28;20405;-76
2024/02/20 05:40:25;;;;;;;24.60;5.97;;;6.40;99.90;;;;;;4926055;28;20039;-77
2024/02/20 05:42:51;;;;;;;29.25;7.45;;;6.30;99.90;;;;;;4941336;28;20027;-77
2024/02/20 05:45:18;;;;;;;19.80;5.68;;;6.30;99.90;;;;;;4928023;28;20031;-76
2024/02/20 05:47:43;;;;;;;13.52;3.88;;;6.30;99.90;;;;;;4927427;28;20039;-77
2024/02/20 05:50:10;;;;;;;22.10;6.78;;;6.20;99.90;;;;;;4922913;28;20038;-78
2024/02/20 05:52:39;;;;;;;16.10;4.97;;;6.30;99.90;;;;;;4944042;28;20409;-77
2024/02/20 05:55:06;;;;;;;29.48;7.40;;;6.10;99.90;;;;;;4925778;28;20915;-77
2024/02/20 05:57:31;;;;;;;19.15;5.40;;;6.10;99.90;;;;;;4908454;28;20122;-78
2024/02/20 05:59:57;;;;;;;17.23;4.63;;;6.20;99.90;;;;;;4909744;28;20110;-77
2024/02/20 06:02:22;;;;;;;29.30;6.85;;;6.20;99.90;;;;;;4914143;28;20032;-76
2024/02/20 06:04:49;;;;;;;23.73;6.57;;;6.30;99.90;;;;;;4915101;28;20041;-76
2024/02/20 06:07:15;;;;;;;28.23;7.65;;;6.20;99.90;;;;;;4927242;28;20058;-77
2024/02/20 06:09:41;;;;;;;22.48;6.47;;;6.10;99.90;;;;;;4925098;28;20031;-78
2024/02/20 06:12:09;;;;;;;27.58;6.18;;;6.00;99.90;;;;;;4930302;28;20041;-77
2024/02/20 06:14:35;;;;;;;22.83;6.55;;;6.10;99.90;;;;;;4926461;28;20042;-77
2024/02/20 06:17:01;;;;;;;22.33;6.93;;;6.20;99.90;;;;;;4925462;28;20521;-78
2024/02/20 06:19:27;;;;;;;30.40;7.57;;;6.30;99.90;;;;;;4911036;28;20113;-78
2024/02/20 06:21:53;;;;;;;31.83;6.90;;;6.10;99.90;;;;;;4920990;28;20398;-77
2024/02/20 06:24:18;;;;;;;25.10;6.03;;;6.20;99.90;;;;;;4928627;28;20042;-78
2024/02/20 06:26:44;;;;;;;27.45;7.43;;;6.20;99.90;;;;;;4911010;28;20453;-78
2024/02/20 06:29:11;;;;;;;30.88;7.88;;;6.10;99.90;;;;;;4927169;28;20042;-77
2024/02/20 06:31:38;;;;;;;23.10;6.38;;;6.20;99.90;;;;;;4923936;28;20039;-77
2024/02/20 06:34:06;;;;;;;27.27;6.97;;;6.20;99.90;;;;;;4924903;28;20131;-78
2024/02/20 06:36:32;;;;;;;26.77;6.47;;;6.10;99.90;;;;;;4913623;28;20119;-78
2024/02/20 06:38:57;;;;;;;29.45;7.57;;;6.20;99.90;;;;;;4923557;28;20038;-77
2024/02/20 06:41:23;;;;;;;34.53;6.55;;;6.20;99.90;;;;;;4922302;28;20047;-78
2024/02/20 06:43:48;;;;;;;21.55;6.15;;;6.20;99.90;;;;;;4923556;28;20043;-78
2024/02/20 06:46:14;;;;;;;20.33;5.30;;;6.20;99.90;;;;;;4911153;28;20050;-80
2024/02/20 06:48:41;;;;;;;21.83;6.85;;;6.10;99.90;;;;;;4926670;28;20409;-78
2024/02/20 06:51:07;;;;;;;32.13;6.88;;;6.10;99.90;;;;;;4912113;28;20057;-78
2024/02/20 06:53:32;;;;;;;16.27;4.28;;;6.30;99.90;;;;;;4909234;28;20039;-78
2024/02/20 06:55:58;;;;;;;29.70;8.02;;;6.20;99.90;;;;;;4927035;28;20118;-78
2024/02/20 06:58:25;;;;;;;26.73;7.22;;;6.30;99.90;;;;;;4909481;28;20049;-78
2024/02/20 07:00:51;;;;;;;22.90;7.43;;;6.30;99.90;;;;;;4925111;28;20519;-78
2024/02/20 07:03:17;;;;;;;26.63;8.48;;;6.30;99.90;;;;;;4906902;28;20035;-79
2024/02/20 07:05:42;;;;;;;33.53;8.27;;;6.40;99.90;;;;;;4925805;28;20073;-78
2024/02/20 07:08:08;;;;;;;29.08;9.57;;;6.40;99.90;;;;;;4927284;28;20413;-78
2024/02/20 07:10:33;;;;;;;26.20;7.18;;;6.40;99.90;;;;;;4937155;28;20035;-78
2024/02/20 07:12:59;;;;;;;21.80;6.70;;;6.30;99.90;;;;;;4923444;28;20102;-78
2024/02/20 07:15:25;;;;;;;25.50;7.35;;;6.40;99.90;;;;;;4939820;28;20031;-77
2024/02/20 07:17:51;;;;;;;24.90;8.20;;;6.40;99.90;;;;;;4926107;28;20516;-78
2024/02/20 07:20:16;;;;;;;23.90;7.57;;;6.50;99.90;;;;;;4940638;28;20041;-78
2024/02/20 07:22:42;;;;;;;26.23;8.48;;;6.50;99.90;;;;;;4940951;28;20469;-78
2024/02/20 07:25:08;;;;;;;23.95;6.75;;;6.50;99.90;;;;;;4937220;28;20031;-78
2024/02/20 07:27:34;;;;;;;22.85;6.93;;;6.50;99.90;;;;;;4923471;28;20329;-78
2024/02/20 07:30:00;;;;;;;24.55;7.75;;;6.60;99.90;;;;;;4923457;28;20110;-78
2024/02/20 07:32:25;;;;;;;23.27;6.97;;;6.60;99.90;;;;;;4928889;28;20039;-79
2024/02/20 07:34:51;;;;;;;32.78;9.48;;;6.50;99.90;;;;;;4942192;28;20058;-78
2024/02/20 07:37:17;;;;;;;25.65;8.07;;;6.60;99.90;;;;;;4926142;28;20535;-78
2024/02/20 07:39:42;;;;;;;34.65;10.18;;;6.60;99.90;;;;;;4908859;28;20505;-78
2024/02/20 07:42:08;;;;;;;19.15;6.82;;;6.60;99.90;;;;;;4933260;28;20045;-77
2024/02/20 07:44:34;;;;;;;27.75;7.07;;;6.60;99.90;;;;;;4912323;28;20036;-78
2024/02/20 07:47:00;;;;;;;40.25;9.23;;;6.70;99.90;;;;;;4935404;28;20134;-78
2024/02/20 07:49:25;;;;;;;19.83;5.72;;;6.70;99.90;;;;;;4912811;28;20420;-78
2024/02/20 07:51:51;;;;;;;12.85;4.47;;;6.70;99.90;;;;;;4923710;28;20042;-78
2024/02/20 07:54:16;;;;;;;30.80;8.00;;;6.70;99.90;;;;;;4940204;28;20035;-79
2024/02/20 07:56:42;;;;;;;26.67;7.35;;;6.70;99.90;;;;;;4927834;28;20035;-78
2024/02/20 07:59:10;;;;;;;20.95;6.85;;;6.80;99.90;;;;;;4915188;28;20055;-78
2024/02/20 08:01:36;;;;;;;28.10;9.65;;;6.70;99.90;;;;;;4947780;28;20603;-79
2024/02/20 08:04:02;;;;;;;28.58;7.82;;;6.80;99.90;;;;;;4917345;28;20035;-79
2024/02/20 08:06:27;;;;;;;27.92;7.20;;;6.80;99.90;;;;;;4914601;28;20046;-79
2024/02/20 08:08:53;;;;;;;27.55;7.43;;;6.80;99.90;;;;;;4911869;28;20035;-79
2024/02/20 08:11:18;;;;;;;15.95;4.53;;;6.90;99.90;;;;;;4917702;28;20114;-79
2024/02/20 08:13:45;;;;;;;33.22;8.70;;;6.90;99.90;;;;;;4950862;28;20693;-78
2024/02/20 08:16:13;;;;;;;31.48;10.13;;;7.00;99.90;;;;;;4937214;28;20039;-79
2024/02/20 08:18:42;;;;;;;29.90;8.80;;;7.00;99.90;;;;;;4949568;28;20039;-79
2024/02/20 08:21:10;;;;;;;31.33;10.77;;;6.90;99.90;;;;;;4934653;28;20071;-78
2024/02/20 08:23:38;;;;;;;21.20;8.38;;;7.00;99.90;;;;;;4930147;28;20509;-79
2024/02/20 08:26:04;;;;;;;36.95;13.18;;;7.10;99.90;;;;;;4947650;28;20067;-78
2024/02/20 08:28:30;;;;;;;27.80;10.68;;;7.20;99.90;;;;;;4946282;28;20063;-79
2024/02/20 08:30:56;;;;;;;33.55;11.07;;;7.20;99.90;;;;;;4933569;28;20032;-79
2024/02/20 08:33:22;;;;;;;36.50;12.40;;;7.30;99.90;;;;;;4936814;28;20038;-78
2024/02/20 08:35:49;;;;;;;31.92;10.23;;;7.40;99.90;;;;;;4952993;28;20044;-78
2024/02/20 08:38:15;;;;;;;46.00;15.10;;;7.40;99.90;;;;;;4951098;28;20045;-78
2024/02/20 08:40:41;;;;;;;37.35;13.73;;;7.50;99.90;;;;;;4935131;28;20095;-79
2024/02/20 08:43:06;;;;;;;40.17;17.52;;;7.60;99.90;;;;;;4934256;28;20094;-79
2024/02/20 08:45:32;;;;;;;35.67;13.77;;;7.60;99.90;;;;;;4952153;28;20409;-78
2024/02/20 08:47:59;;;;;;;26.30;11.10;;;7.70;99.90;;;;;;4932975;28;20058;-78
2024/02/20 08:50:26;;;;;;;18.58;6.50;;;7.80;99.90;;;;;;4952338;28;20031;-79
2024/02/20 08:52:51;;;;;;;22.38;7.88;;;7.80;99.90;;;;;;4939310;28;20039;-79
2024/02/20 08:55:17;;;;;;;41.65;15.32;;;7.90;99.90;;;;;;4938371;28;20035;-78
2024/02/20 08:57:42;;;;;;;36.65;13.23;;;7.90;99.90;;;;;;4929931;28;20100;-78
2024/02/20 09:00:11;;;;;;;17.40;8.88;;;7.90;99.90;;;;;;4946974;28;20524;-78
2024/02/20 09:02:40;;;;;;;35.60;14.73;;;7.90;99.90;;;;;;4949536;28;20104;-78
2024/02/20 09:05:06;;;;;;;32.80;14.25;;;8.00;99.90;;;;;;4915695;28;20340;-78
2024/02/20 09:07:32;;;;;;;26.80;10.00;;;8.00;99.90;;;;;;4930746;28;20541;-78
2024/02/20 09:09:57;;;;;;;25.08;7.85;;;8.10;99.90;;;;;;4943161;28;20036;-78
2024/02/20 09:12:23;;;;;;;33.65;12.68;;;8.20;99.90;;;;;;4932714;28;20405;-78
2024/02/20 09:14:48;;;;;;;26.95;12.35;;;8.30;99.90;;;;;;4930885;28;20130;-78
2024/02/20 09:17:16;;;;;;;30.35;11.52;;;8.30;99.90;;;;;;4931635;28;20039;-78
2024/02/20 09:19:42;;;;;;;24.90;11.48;;;8.40;99.90;;;;;;4929441;28;20071;-79
2024/02/20 09:22:10;;;;;;;14.25;6.03;;;8.60;99.90;;;;;;4943821;28;20705;-78
2024/02/20 09:24:38;;;;;;;16.73;6.13;;;8.60;99.90;;;;;;4945299;28;20067;-79
2024/02/20 09:27:04;;;;;;;40.30;16.58;;;8.60;99.90;;;;;;4911994;28;20568;-79
2024/02/20 09:29:31;;;;;;;27.67;11.93;;;8.70;99.90;;;;;;4926068;28;20023;-78
2024/02/20 09:31:58;;;;;;;38.28;13.88;;;8.80;99.90;;;;;;4932896;28;20714;-78
2024/02/20 09:34:24;;;;;;;44.05;15.85;;;8.60;99.90;;;;;;4934111;28;20036;-78
2024/02/20 09:36:49;;;;;;;24.65;10.02;;;8.60;99.90;;;;;;4947675;28;20058;-79
2024/02/20 09:39:15;;;;;;;19.38;9.82;;;8.80;99.90;;;;;;4926698;28;20027;-78
2024/02/20 09:41:43;;;;;;;32.97;14.00;;;8.90;99.90;;;;;;4933425;28;20398;-79
2024/02/20 09:44:10;;;;;;;24.10;11.68;;;8.90;99.90;;;;;;4937379;28;20111;-78
2024/02/20 09:46:42;;;;;;;27.40;14.48;;;9.00;99.90;;;;;;4919229;28;20461;-79
2024/02/20 09:49:09;;;;;;;40.90;12.73;;;9.10;99.90;;;;;;4938473;28;20035;-79
2024/02/20 09:51:35;;;;;;;25.42;11.05;;;9.10;99.90;;;;;;4947516;28;20043;-78
2024/02/20 09:54:00;;;;;;;29.35;13.73;;;9.20;99.90;;;;;;4951195;28;20047;-78
2024/02/20 09:56:26;;;;;;;14.30;7.28;;;8.90;99.90;;;;;;4941721;28;20039;-78
2024/02/20 09:58:52;;;;;;;23.98;11.70;;;9.10;99.90;;;;;;4938054;28;20031;-78
2024/02/20 10:01:17;;;;;;;22.50;10.70;;;9.20;99.90;;;;;;4951671;28;20043;-77
2024/02/20 10:03:44;;;;;;;29.30;12.32;;;9.10;99.90;;;;;;4933402;28;20043;-77
2024/02/20 10:06:09;;;;;;;33.88;14.68;;;9.20;99.90;;;;;;4970462;28;20039;-78
2024/02/20 10:08:35;;;;;;;22.05;9.93;;;9.30;99.90;;;;;;4931152;28;20074;-78
2024/02/20 10:11:03;;;;;;;30.85;13.70;;;9.40;99.90;;;;;;4930002;28;20151;-78
2024/02/20 10:13:28;;;;;;;27.55;10.48;;;9.40;99.90;;;;;;4929223;28;20032;-78
2024/02/20 10:16:15;;;;;;;30.65;12.38;;;9.30;99.90;;;;;;4945900;28;20055;-78
2024/02/20 10:18:43;;;;;;;28.98;11.27;;;9.60;99.90;;;;;;4927003;28;20042;-78
2024/02/20 10:21:09;;;;;;;42.97;14.15;;;9.60;99.90;;;;;;4925732;28;20027;-79
2024/02/20 10:23:35;;;;;;;28.45;10.32;;;9.50;99.90;;;;;;4927518;28;20469;-78
2024/02/20 10:26:01;;;;;;;16.90;8.63;;;9.50;99.90;;;;;;4930954;28;20110;-79
2024/02/20 10:28:27;;;;;;;25.27;9.18;;;9.60;99.90;;;;;;4939678;28;20168;-79
2024/02/20 10:30:55;;;;;;;32.58;12.52;;;9.70;99.90;;;;;;4930327;28;20512;-79
2024/02/20 10:33:21;;;;;;;28.45;11.02;;;9.70;99.90;;;;;;4951548;28;20039;-79
2024/02/20 10:35:47;;;;;;;30.63;11.80;;;10.00;99.90;;;;;;4936636;28;20402;-79
2024/02/20 10:38:18;;;;;;;28.58;9.07;;;9.90;99.90;;;;;;4929781;28;20051;-79
2024/02/20 10:40:44;;;;;;;26.38;12.13;;;9.80;99.90;;;;;;4922569;28;20043;-78
2024/02/20 10:43:11;;;;;;;24.92;9.52;;;9.90;99.90;;;;;;4942438;28;20020;-79
2024/02/20 10:45:37;;;;;;;20.20;7.40;;;9.90;99.90;;;;;;4941169;28;20035;-80
2024/02/20 10:48:03;;;;;;;24.75;9.90;;;9.80;99.90;;;;;;4942133;28;20676;-79
2024/02/20 10:50:29;;;;;;;37.13;15.38;;;9.80;99.90;;;;;;4943215;28;20035;-80
2024/02/20 10:52:54;;;;;;;31.10;12.82;;;9.90;99.90;;;;;;4935432;28;20041;-79
2024/02/20 10:55:20;;;;;;;36.55;11.98;;;9.80;99.90;;;;;;4936811;28;20039;-79
2024/02/20 10:57:47;;;;;;;26.42;10.40;;;9.90;99.90;;;;;;4906983;28;20040;-79
2024/02/20 11:00:14;;;;;;;23.70;9.93;;;10.10;99.90;;;;;;4931259;28;20220;-82
2024/02/20 11:02:42;;;;;;;25.20;8.48;;;10.10;99.90;;;;;;4910139;28;20101;-78
2024/02/20 11:05:12;;;;;;;25.92;8.65;;;9.90;99.90;;;;;;4925893;28;20027;-79
2024/02/20 11:07:44;;;;;;;31.90;11.13;;;10.00;99.90;;;;;;4929323;28;20045;-80
2024/02/20 11:10:17;;;;;;;31.50;9.77;;;9.90;99.90;;;;;;4928230;28;20105;-80
2024/02/20 11:12:44;;;;;;;29.23;9.90;;;10.00;99.90;;;;;;4917625;28;20050;-78
2024/02/20 11:15:17;;;;;;;30.52;10.02;;;10.10;99.90;;;;;;4922460;28;20031;-78
2024/02/20 11:17:43;;;;;;;18.52;7.55;;;10.00;99.90;;;;;;4913185;28;20042;-78
2024/02/20 11:20:19;;;;;;;20.20;6.90;;;10.10;99.90;;;;;;4913099;28;20043;-79
2024/02/20 11:22:45;;;;;;;30.77;12.60;;;10.00;99.90;;;;;;4909399;28;20041;-79
2024/02/20 11:25:15;;;;;;;20.42;8.80;;;10.20;99.90;;;;;;4942314;28;20476;-78
2024/02/20 11:27:45;;;;;;;23.08;8.98;;;10.20;99.90;;;;;;4928896;28;20113;-78
2024/02/20 11:30:18;;;;;;;33.33;11.70;;;10.00;99.90;;;;;;4912803;28;20312;-79
2024/02/20 11:32:50;;;;;;;25.60;8.15;;;10.20;99.90;;;;;;4930428;28;20047;-78
2024/02/20 11:35:26;;;;;;;30.17;9.52;;;10.30;99.90;;;;;;4925161;28;20031;-78
2024/02/20 11:37:53;;;;;;;15.32;6.88;;;10.30;99.90;;;;;;4923472;28;20038;-79
2024/02/20 11:40:32;;;;;;;20.83;7.78;;;10.30;99.90;;;;;;4925008;28;20048;-79
2024/02/20 11:43:03;;;;;;;25.90;10.80;;;10.20;99.90;;;;;;4913230;28;20032;-78
2024/02/20 11:45:31;;;;;;;28.98;10.85;;;10.30;99.90;;;;;;4927168;28;20041;-78
2024/02/20 11:48:12;;;;;;;34.38;12.23;;;10.40;99.90;;;;;;4591512;28;10000482;-78
2024/02/20 11:50:41;;;;;;;18.48;7.53;;;10.30;99.90;;;;;;4938843;28;20102;-79
2024/02/20 11:53:15;;;;;;;33.28;13.07;;;10.10;99.90;;;;;;4925984;28;20162;-79
2024/02/20 11:55:44;;;;;;;41.70;10.77;;;10.10;99.90;;;;;;4939102;28;20038;-79
2024/02/20 11:58:15;;;;;;;33.55;13.40;;;10.10;99.90;;;;;;4940908;28;20493;-78
2024/02/20 12:00:40;;;;;;;29.40;9.90;;;10.10;99.90;;;;;;4925005;28;20376;-79
2024/02/20 12:03:09;;;;;;;30.75;13.20;;;10.10;99.90;;;;;;4916128;28;20032;-78
2024/02/20 12:05:40;;;;;;;24.55;9.50;;;10.10;99.90;;;;;;4935846;28;20653;-78
2024/02/20 12:08:13;;;;;;;19.15;7.78;;;10.20;99.90;;;;;;4937933;28;20043;-79
2024/02/20 12:10:40;;;;;;;32.28;8.50;;;10.30;99.90;;;;;;4950645;28;20036;-78
2024/02/20 12:13:16;;;;;;;24.30;8.40;;;10.40;99.90;;;;;;4574027;28;9999721;-78
2024/02/20 12:15:43;;;;;;;27.58;7.97;;;10.40;99.90;;;;;;4931792;28;20490;-79
2024/02/20 12:18:11;;;;;;;19.27;8.38;;;10.40;99.90;;;;;;4946078;28;20497;-78
2024/02/20 12:20:37;;;;;;;30.27;11.25;;;10.50;99.90;;;;;;4948198;28;20050;-78
2024/02/20 12:23:03;;;;;;;36.85;12.55;;;10.50;99.90;;;;;;4929922;28;20040;-79
2024/02/20 12:25:28;;;;;;;15.02;6.78;;;10.70;99.90;;;;;;4944723;28;20062;-79
2024/02/20 12:27:54;;;;;;;21.77;8.40;;;10.80;99.90;;;;;;4915709;28;20040;-79
2024/02/20 12:30:20;;;;;;;25.77;9.32;;;10.70;99.90;;;;;;4944524;28;20091;-79
2024/02/20 12:32:45;;;;;;;20.25;6.45;;;10.70;99.90;;;;;;4940722;28;20049;-79
2024/02/20 12:35:11;;;;;;;37.60;10.70;;;10.80;99.90;;;;;;4952312;28;20040;-79
2024/02/20 12:37:37;;;;;;;20.30;5.90;;;10.80;99.90;;;;;;4936060;28;20040;-78
2024/02/20 12:40:06;;;;;;;8.80;4.63;;;10.70;99.90;;;;;;4917509;28;20039;-79